createdAt,value
2022-11-27T00:02:28.782Z,97910.13
2022-11-27T00:07:33.483Z,97920.38
2022-11-27T00:12:38.220Z,97926.56
2022-11-27T00:17:41.954Z,97937.91
2022-11-27T00:22:45.294Z,97931.72
2022-11-27T00:27:49.408Z,97932.19
2022-11-27T00:32:53.028Z,97939.09
2022-11-27T00:37:56.279Z,97943.06
2022-11-27T00:42:59.647Z,97949.13
2022-11-27T00:48:03.200Z,97952.75
2022-11-27T00:53:06.585Z,97940.50
2022-11-27T00:58:09.654Z,97942.59
2022-11-27T01:03:12.735Z,97941.75
2022-11-27T01:08:16.201Z,97950.41
2022-11-27T01:13:20.410Z,97958.00
2022-11-27T01:18:24.422Z,97961.06
2022-11-27T01:23:27.612Z,97953.00
2022-11-27T01:28:32.391Z,97946.56
2022-11-27T01:33:36.165Z,97953.00
2022-11-27T01:38:39.675Z,97939.56
2022-11-27T01:44:00.570Z,97952.41
2022-11-27T01:49:29.525Z,97949.50
2022-11-27T01:54:43.665Z,97945.63
2022-11-27T01:59:49.374Z,97939.78
2022-11-27T02:04:53.879Z,97928.31
2022-11-27T02:09:57.286Z,97938.16
2022-11-27T02:15:18.624Z,97939.56
2022-11-27T02:20:41.539Z,97931.03
2022-11-27T02:26:05.805Z,97915.25
2022-11-27T02:31:26.073Z,97923.31
2022-11-27T02:36:32.024Z,97906.81
2022-11-27T02:41:49.708Z,97896.66
2022-11-27T02:46:55.289Z,97895.13
2022-11-27T02:52:01.360Z,97886.81
2022-11-27T02:57:06.739Z,97894.66
2022-11-27T03:02:15.342Z,97892.56
2022-11-27T03:07:27.077Z,97901.44
2022-11-27T03:12:30.668Z,97907.19
2022-11-27T03:17:53.205Z,97914.06
2022-11-27T03:22:57.976Z,97930.19
2022-11-27T03:28:08.275Z,97929.22
2022-11-27T03:33:12.115Z,97931.38
2022-11-27T03:38:16.010Z,97942.22
2022-11-27T03:43:24.998Z,97939.63
2022-11-27T03:48:30.998Z,97941.38
2022-11-27T03:53:40.608Z,97946.38
2022-11-27T03:58:49.997Z,97946.81
2022-11-27T04:03:54.004Z,97944.03
2022-11-27T04:08:57.508Z,97939.91
2022-11-27T04:14:00.872Z,97936.28
2022-11-27T04:19:04.035Z,97923.19
2022-11-27T04:24:07.794Z,97921.63
2022-11-27T04:29:11.263Z,97905.38
2022-11-27T04:34:14.611Z,97914.34
2022-11-27T04:39:17.727Z,97928.44
2022-11-27T04:44:20.655Z,97932.97
2022-11-27T04:49:23.846Z,97941.59
2022-11-27T04:54:27.281Z,97941.16
2022-11-27T04:59:30.732Z,97945.06
2022-11-27T05:04:33.946Z,97956.72
2022-11-27T05:09:37.273Z,97956.88
2022-11-27T05:14:41.359Z,97951.06
2022-11-27T05:19:45.999Z,97950.41
2022-11-27T05:24:50.291Z,97958.44
2022-11-27T05:29:53.485Z,97963.69
2022-11-27T05:34:56.436Z,97981.25
2022-11-27T05:40:00.527Z,97971.34
2022-11-27T05:45:06.880Z,97975.91
2022-11-27T05:50:10.610Z,97980.13
2022-11-27T05:55:14.130Z,97992.66
2022-11-27T06:00:18.617Z,97996.69
2022-11-27T06:05:21.872Z,97996.06
2022-11-27T06:10:25.146Z,97995.88
2022-11-27T06:15:28.753Z,97989.13
2022-11-27T06:20:32.421Z,97992.53
2022-11-27T06:25:36.093Z,97984.88
2022-11-27T06:30:39.398Z,97988.09
2022-11-27T06:35:42.322Z,97991.59
2022-11-27T06:40:45.459Z,98001.09
2022-11-27T06:45:56.766Z,98000.75
2022-11-27T06:51:04.896Z,97993.28
2022-11-27T06:56:15.272Z,97986.53
2022-11-27T07:01:20.086Z,97975.56
2022-11-27T07:06:28.924Z,97978.25
2022-11-27T07:11:33.129Z,97973.44
2022-11-27T07:16:37.440Z,97984.44
2022-11-27T07:21:40.910Z,97970.66
2022-11-27T07:26:44.433Z,97977.81
2022-11-27T07:31:47.964Z,97966.22
2022-11-27T07:36:52.813Z,97960.81
2022-11-27T07:42:00.028Z,97950.50
2022-11-27T07:47:06.284Z,97932.59
2022-11-27T07:52:09.535Z,97931.78
2022-11-27T07:57:12.822Z,97918.91
2022-11-27T08:02:16.545Z,97926.25
2022-11-27T08:07:20.080Z,97918.44
2022-11-27T08:12:24.640Z,97919.03
2022-11-27T08:17:28.204Z,97891.41
2022-11-27T08:22:31.620Z,97898.16
2022-11-27T08:27:34.930Z,97889.81
2022-11-27T08:32:41.674Z,97883.94
2022-11-27T08:37:47.041Z,97866.66
2022-11-27T08:42:50.607Z,97878.09
2022-11-27T08:47:55.093Z,97880.22
2022-11-27T08:52:58.570Z,97849.63
2022-11-27T08:58:02.259Z,97840.03
2022-11-27T09:03:06.402Z,97826.06
2022-11-27T09:08:09.746Z,97811.97
2022-11-27T09:13:12.936Z,97822.34
2022-11-27T09:18:16.264Z,97807.28
2022-11-27T09:23:20.790Z,97815.50
2022-11-27T09:28:28.207Z,97814.03
2022-11-27T09:33:38.588Z,97786.91
2022-11-27T09:38:42.213Z,97786.56
2022-11-27T09:43:55.236Z,97774.97
2022-11-27T09:49:00.958Z,97776.22
2022-11-27T09:54:27.180Z,97763.78
2022-11-27T09:59:45.690Z,97746.00
2022-11-27T10:05:12.942Z,97737.09
2022-11-27T10:10:18.098Z,97725.75
2022-11-27T10:15:37.593Z,97738.13
2022-11-27T10:20:43.327Z,97714.13
2022-11-27T10:25:55.128Z,97702.75
2022-11-27T10:31:12.928Z,97680.75
2022-11-27T10:36:24.588Z,97689.06
2022-11-27T10:42:03.254Z,97670.19
2022-11-27T10:47:10.875Z,97666.66
2022-11-27T10:52:17.035Z,97679.41
2022-11-27T10:57:47.569Z,97664.78
2022-11-27T11:03:03.212Z,97689.63
2022-11-27T11:08:16.556Z,97670.56
2022-11-27T11:13:24.457Z,97662.69
2022-11-27T11:18:41.776Z,97671.00
2022-11-27T11:23:57.722Z,97665.69
2022-11-27T11:29:05.212Z,97678.13
2022-11-27T11:34:30.001Z,97669.19
2022-11-27T11:39:45.808Z,97659.84
2022-11-27T11:44:55.401Z,97656.81
2022-11-27T11:49:59.305Z,97646.75
2022-11-27T11:55:26.270Z,97644.03
2022-11-27T12:00:58.412Z,97657.06
2022-11-27T12:06:25.814Z,97636.00
2022-11-27T12:11:57.930Z,97636.13
2022-11-27T12:17:21.580Z,97644.47
2022-11-27T12:22:41.200Z,97628.75
2022-11-27T12:28:02.979Z,97640.31
2022-11-27T12:33:24.176Z,97630.53
2022-11-27T12:39:05.665Z,97635.13
2022-11-27T12:44:22.935Z,97613.59
2022-11-27T12:49:43.973Z,97607.66
2022-11-27T12:54:58.192Z,97604.97
2022-11-27T13:00:24.980Z,97611.91
2022-11-27T13:05:42.109Z,97618.88
2022-11-27T13:10:55.979Z,97609.44
2022-11-27T13:16:10.405Z,97612.63
2022-11-27T13:21:18.853Z,97608.28
2022-11-27T13:26:35.429Z,97611.75
2022-11-27T13:31:39.363Z,97610.06
2022-11-27T13:36:46.836Z,97611.94
2022-11-27T13:42:11.757Z,97622.19
2022-11-27T13:47:19.611Z,97623.81
2022-11-27T13:52:23.294Z,97632.41
2022-11-27T13:57:28.355Z,97631.78
2022-11-27T14:02:47.413Z,97625.78
2022-11-27T14:07:56.433Z,97644.34
2022-11-27T14:13:04.038Z,97634.88
2022-11-27T14:18:21.223Z,97624.31
2022-11-27T14:23:50.270Z,97619.19
2022-11-27T14:28:56.467Z,97600.81
2022-11-27T14:34:14.857Z,97596.50
2022-11-27T14:39:30.180Z,97615.09
2022-11-27T14:44:34.076Z,97602.44
2022-11-27T14:49:37.512Z,97603.00
2022-11-27T14:54:42.396Z,97604.91
2022-11-27T14:59:45.762Z,97605.13
2022-11-27T15:04:49.211Z,97600.81
2022-11-27T15:09:59.221Z,97587.59
2022-11-27T15:15:09.993Z,97580.84
2022-11-27T15:20:23.883Z,97590.47
2022-11-27T15:25:40.198Z,97604.72
2022-11-27T15:30:46.922Z,97599.03
2022-11-27T15:35:53.900Z,97590.63
2022-11-27T15:41:00.576Z,97588.09
2022-11-27T15:46:07.414Z,97605.63
2022-11-27T15:51:10.772Z,97600.78
2022-11-27T15:56:14.793Z,97596.75
2022-11-27T16:01:18.511Z,97597.81
2022-11-27T16:06:22.318Z,97585.41
2022-11-27T16:11:26.940Z,97591.06
2022-11-27T16:16:30.512Z,97598.56
2022-11-27T16:21:35.448Z,97594.50
2022-11-27T16:26:39.083Z,97592.06
2022-11-27T16:31:42.473Z,97580.97
2022-11-27T16:36:46.518Z,97588.78
2022-11-27T16:41:51.471Z,97585.06
2022-11-27T16:46:56.417Z,97589.63
2022-11-27T16:52:00.346Z,97576.97
2022-11-27T16:57:05.004Z,97580.69
2022-11-27T17:02:10.312Z,97580.41
2022-11-27T17:07:13.954Z,97576.56
2022-11-27T17:12:17.500Z,97571.19
2022-11-27T17:17:21.123Z,97576.63
2022-11-27T17:22:24.562Z,97552.41
2022-11-27T17:27:29.013Z,97556.22
2022-11-27T17:32:32.339Z,97560.28
2022-11-27T17:37:35.683Z,97562.50
2022-11-27T17:42:39.082Z,97569.25
2022-11-27T17:47:42.535Z,97567.63
2022-11-27T17:52:46.133Z,97559.03
2022-11-27T17:57:49.494Z,97567.91
2022-11-27T18:02:54.146Z,97570.59
2022-11-27T18:07:59.434Z,97573.31
2022-11-27T18:16:45.143Z,97565.28
2022-11-27T18:21:48.665Z,97549.44
2022-11-27T18:27:09.147Z,97548.91
2022-11-27T18:32:14.945Z,97543.31
2022-11-27T18:37:21.090Z,97547.34
2022-11-27T18:42:25.559Z,97525.78
2022-11-27T18:47:30.613Z,97526.59
2022-11-27T18:52:34.147Z,97529.31
2022-11-27T18:57:38.614Z,97512.06
2022-11-27T19:02:42.279Z,97495.63
2022-11-27T19:07:48.239Z,97507.53
2022-11-27T19:12:51.634Z,97514.13
2022-11-27T19:17:56.644Z,97505.53
2022-11-27T19:23:00.231Z,97508.53
2022-11-27T19:28:11.366Z,97506.66
2022-11-27T19:33:14.657Z,97508.06
2022-11-27T19:38:18.327Z,97497.00
2022-11-27T19:43:23.311Z,97494.06
2022-11-27T19:48:26.650Z,97482.75
2022-11-27T19:53:30.231Z,97484.69
2022-11-27T19:58:34.240Z,97487.09
2022-11-27T20:03:38.541Z,97490.59
2022-11-27T20:08:45.696Z,97481.69
2022-11-27T20:13:49.705Z,97476.28
2022-11-27T20:18:54.421Z,97480.06
2022-11-27T20:24:00.213Z,97480.06
2022-11-27T20:29:04.653Z,97473.88
2022-11-27T20:34:15.261Z,97475.97
2022-11-27T20:39:21.824Z,97480.03
2022-11-27T20:44:26.802Z,97464.31
2022-11-27T20:49:30.287Z,97474.53
2022-11-27T20:54:36.310Z,97470.16
2022-11-27T20:59:43.472Z,97474.97
2022-11-27T21:04:47.589Z,97480.63
2022-11-27T21:09:52.150Z,97477.63
2022-11-27T21:14:55.663Z,97475.44
2022-11-27T21:19:59.916Z,97466.22
2022-11-27T21:25:03.511Z,97461.66
2022-11-27T21:30:07.860Z,97464.63
2022-11-27T21:35:11.340Z,97453.84
2022-11-27T21:40:16.787Z,97444.63
2022-11-27T21:45:20.095Z,97446.22
2022-11-27T21:50:24.570Z,97441.03
2022-11-27T21:55:30.443Z,97433.72
2022-11-27T22:00:34.068Z,97424.50
2022-11-27T22:05:37.535Z,97423.63
2022-11-27T22:10:42.133Z,97413.06
2022-11-27T22:15:45.846Z,97417.03
2022-11-27T22:20:50.462Z,97414.28
2022-11-27T22:25:53.805Z,97409.41
2022-11-27T22:31:03.588Z,97400.00
2022-11-27T22:36:28.782Z,97399.19
2022-11-27T22:41:36.647Z,97390.56
2022-11-27T22:46:42.819Z,97386.47
2022-11-27T22:51:47.335Z,97378.41
2022-11-27T22:56:51.857Z,97380.56
2022-11-27T23:01:56.589Z,97378.66
2022-11-27T23:07:01.098Z,97366.59
2022-11-27T23:12:05.235Z,97359.88
2022-11-27T23:17:08.809Z,97354.22
2022-11-27T23:22:12.133Z,97354.22
2022-11-27T23:27:15.470Z,97342.16
2022-11-27T23:32:18.911Z,97361.59
2022-11-27T23:37:22.189Z,97364.59
2022-11-27T23:42:25.529Z,97374.06
2022-11-27T23:47:28.902Z,97376.47
2022-11-27T23:52:33.223Z,97379.50
2022-11-27T23:57:36.473Z,97373.53
